createdAt,value
2022-12-20T00:02:01.641Z,48.65
2022-12-20T00:04:30.746Z,47.00
2022-12-20T00:06:59.809Z,47.58
2022-12-20T00:09:29.026Z,45.33
2022-12-20T00:11:58.075Z,48.60
2022-12-20T00:14:28.410Z,47.60
2022-12-20T00:16:57.399Z,49.28
2022-12-20T00:19:26.436Z,48.45
2022-12-20T00:21:55.472Z,47.88
2022-12-20T00:24:26.508Z,43.95
2022-12-20T00:26:55.782Z,44.22
2022-12-20T00:29:25.323Z,42.53
2022-12-20T00:31:55.922Z,42.17
2022-12-20T00:34:25.014Z,44.30
2022-12-20T00:36:54.091Z,45.78
2022-12-20T00:39:23.089Z,45.90
2022-12-20T00:41:52.112Z,44.60
2022-12-20T00:44:21.173Z,44.20
2022-12-20T00:46:50.813Z,49.38
2022-12-20T00:49:21.456Z,47.88
2022-12-20T00:51:50.851Z,50.35
2022-12-20T00:54:19.848Z,48.63
2022-12-20T00:56:50.400Z,44.70
2022-12-20T00:59:19.720Z,47.90
2022-12-20T01:01:50.406Z,49.08
2022-12-20T01:04:23.659Z,44.63
2022-12-20T01:06:52.706Z,43.78
2022-12-20T01:09:21.731Z,44.25
2022-12-20T01:11:51.685Z,49.05
2022-12-20T01:14:20.723Z,48.50
2022-12-20T01:16:50.167Z,47.58
2022-12-20T01:19:20.738Z,50.70
2022-12-20T01:21:51.153Z,49.88
2022-12-20T01:24:21.694Z,49.10
2022-12-20T01:26:50.957Z,48.30
2022-12-20T01:29:20.725Z,48.25
2022-12-20T01:31:49.929Z,47.38
2022-12-20T01:34:19.037Z,45.13
2022-12-20T01:36:51.856Z,44.85
2022-12-20T01:39:22.282Z,48.85
2022-12-20T01:42:01.104Z,48.50
2022-12-20T01:44:58.330Z,47.78
2022-12-20T01:47:31.173Z,47.15
2022-12-20T01:50:04.227Z,45.65
2022-12-20T01:52:38.331Z,44.78
2022-12-20T01:55:15.430Z,46.60
2022-12-20T02:00:17.940Z,45.55
2022-12-20T02:02:49.285Z,48.13
2022-12-20T02:05:23.705Z,47.83
2022-12-20T02:07:57.649Z,46.53
2022-12-20T02:10:42.322Z,51.88
2022-12-20T02:13:25.324Z,49.92
2022-12-20T02:15:59.708Z,51.60
2022-12-20T02:18:36.196Z,51.95
2022-12-20T02:21:29.599Z,51.45
2022-12-20T02:24:39.276Z,52.38
2022-12-20T02:27:36.147Z,51.75
2022-12-20T02:30:12.135Z,52.20
2022-12-20T02:32:50.310Z,49.15
2022-12-20T02:35:24.201Z,49.05
2022-12-20T02:37:56.095Z,48.60
2022-12-20T02:40:29.077Z,50.35
2022-12-20T02:43:03.088Z,50.15
2022-12-20T02:45:37.518Z,49.25
2022-12-20T02:48:10.924Z,48.03
2022-12-20T02:50:45.802Z,49.85
2022-12-20T02:53:15.306Z,52.63
2022-12-20T02:55:51.789Z,49.78
2022-12-20T02:58:29.847Z,49.25
2022-12-20T03:01:05.989Z,51.17
2022-12-20T03:03:36.209Z,52.05
2022-12-20T03:06:06.471Z,53.90
2022-12-20T03:08:35.802Z,55.35
2022-12-20T03:11:05.030Z,52.95
2022-12-20T03:13:34.962Z,53.05
2022-12-20T03:16:11.892Z,51.90
2022-12-20T03:18:40.994Z,52.47
2022-12-20T03:21:10.042Z,51.58
2022-12-20T03:23:39.297Z,51.38
2022-12-20T03:26:08.811Z,55.05
2022-12-20T03:28:43.833Z,54.63
2022-12-20T03:31:18.162Z,55.90
2022-12-20T03:33:52.718Z,52.72
2022-12-20T03:36:23.994Z,49.38
2022-12-20T03:38:58.253Z,51.33
2022-12-20T03:41:29.444Z,50.55
2022-12-20T03:43:58.785Z,53.78
2022-12-20T03:46:29.691Z,52.58
2022-12-20T03:48:59.450Z,52.95
2022-12-20T03:51:29.045Z,51.97
2022-12-20T03:53:58.158Z,54.53
2022-12-20T03:56:41.384Z,53.53
2022-12-20T03:59:10.739Z,50.63
2022-12-20T04:01:41.714Z,55.05
2022-12-20T04:04:12.313Z,51.42
2022-12-20T04:06:41.703Z,50.42
2022-12-20T04:09:10.735Z,50.88
2022-12-20T04:11:45.064Z,49.40
2022-12-20T04:14:17.033Z,49.90
2022-12-20T04:16:48.036Z,49.92
2022-12-20T04:19:18.181Z,52.50
2022-12-20T04:21:49.197Z,52.00
2022-12-20T04:24:20.461Z,50.72
2022-12-20T04:26:59.497Z,50.88
2022-12-20T04:29:28.796Z,50.47
2022-12-20T04:31:59.377Z,50.22
2022-12-20T04:34:28.625Z,48.08
2022-12-20T04:36:57.718Z,50.80
2022-12-20T04:39:38.605Z,49.85
2022-12-20T04:42:30.881Z,49.13
2022-12-20T04:45:00.192Z,47.60
2022-12-20T04:47:33.322Z,48.78
2022-12-20T04:50:02.673Z,47.92
2022-12-20T04:52:49.186Z,56.20
2022-12-20T04:55:18.820Z,51.10
2022-12-20T04:57:48.214Z,49.80
2022-12-20T05:00:18.551Z,57.25
2022-12-20T05:02:54.775Z,57.97
2022-12-20T05:05:26.827Z,54.95
2022-12-20T05:07:57.828Z,54.17
2022-12-20T05:10:27.564Z,54.28
2022-12-20T05:12:59.998Z,53.17
2022-12-20T05:15:40.061Z,55.03
2022-12-20T05:18:11.212Z,55.05
2022-12-20T05:21:20.444Z,52.05
2022-12-20T05:24:09.614Z,54.67
2022-12-20T05:26:54.732Z,49.80
2022-12-20T05:29:23.807Z,52.75
2022-12-20T05:31:52.919Z,50.78
2022-12-20T05:34:23.715Z,53.25
2022-12-20T05:36:55.769Z,51.38
2022-12-20T05:39:28.053Z,57.22
2022-12-20T05:42:01.401Z,56.75
2022-12-20T05:44:35.292Z,52.35
2022-12-20T05:47:05.716Z,50.90
2022-12-20T05:49:44.227Z,53.42
2022-12-20T05:52:17.473Z,52.50
2022-12-20T05:54:46.656Z,59.35
2022-12-20T05:57:19.031Z,55.28
2022-12-20T06:00:16.063Z,54.60
2022-12-20T06:02:46.004Z,51.70
2022-12-20T06:05:17.009Z,53.38
2022-12-20T06:08:17.608Z,51.40
2022-12-20T06:10:47.013Z,52.75
2022-12-20T06:13:17.523Z,50.28
2022-12-20T06:15:47.040Z,50.47
2022-12-20T06:18:16.106Z,51.30
2022-12-20T06:20:51.629Z,50.05
2022-12-20T06:23:24.415Z,50.78
2022-12-20T06:26:09.430Z,50.67
2022-12-20T06:28:46.474Z,51.97
2022-12-20T06:31:16.293Z,50.65
2022-12-20T06:33:51.159Z,51.00
2022-12-20T06:36:24.057Z,53.63
2022-12-20T06:38:55.044Z,50.72
2022-12-20T06:41:24.096Z,49.78
2022-12-20T06:43:54.627Z,47.65
2022-12-20T06:46:23.708Z,50.25
2022-12-20T06:48:53.025Z,48.63
2022-12-20T06:51:23.952Z,46.17
2022-12-20T06:53:53.623Z,50.70
2022-12-20T06:56:23.933Z,48.42
2022-12-20T06:58:52.961Z,46.22
2022-12-20T07:01:22.160Z,52.38
2022-12-20T07:03:51.393Z,48.83
2022-12-20T07:06:20.522Z,46.42
2022-12-20T07:08:51.064Z,46.20
2022-12-20T07:11:20.132Z,44.17
2022-12-20T07:13:50.337Z,49.38
2022-12-20T07:16:19.516Z,48.83
2022-12-20T07:18:51.204Z,46.28
2022-12-20T07:21:21.694Z,48.55
2022-12-20T07:23:52.186Z,46.53
2022-12-20T07:26:21.278Z,45.72
2022-12-20T07:28:50.351Z,47.88
2022-12-20T07:31:19.519Z,51.05
2022-12-20T07:33:48.574Z,57.72
2022-12-20T07:36:17.744Z,48.03
2022-12-20T07:38:46.997Z,48.30
2022-12-20T07:41:19.276Z,47.22
2022-12-20T07:43:48.530Z,47.83
2022-12-20T07:46:18.622Z,53.05
2022-12-20T07:48:47.786Z,53.00
2022-12-20T07:51:20.197Z,47.78
2022-12-20T07:53:55.311Z,46.45
2022-12-20T07:56:26.908Z,46.53
2022-12-20T07:58:59.489Z,49.25
2022-12-20T08:01:30.576Z,48.22
2022-12-20T08:04:05.829Z,49.13
2022-12-20T08:06:37.758Z,47.05
2022-12-20T08:09:08.104Z,47.47
2022-12-20T08:11:39.002Z,49.95
2022-12-20T08:14:08.882Z,52.20
2022-12-20T08:16:38.056Z,47.70
2022-12-20T08:19:07.131Z,46.92
2022-12-20T08:21:36.223Z,48.25
2022-12-20T08:24:05.626Z,47.63
2022-12-20T08:26:40.212Z,49.63
2022-12-20T08:29:10.568Z,49.53
2022-12-20T08:31:44.391Z,49.67
2022-12-20T08:36:45.469Z,46.60
2022-12-20T08:39:14.546Z,45.45
2022-12-20T08:41:44.995Z,48.00
2022-12-20T08:44:15.029Z,46.58
2022-12-20T08:46:44.182Z,47.13
2022-12-20T08:49:14.020Z,47.90
2022-12-20T08:51:43.187Z,48.20
2022-12-20T08:54:12.201Z,47.55
2022-12-20T08:56:41.238Z,46.75
2022-12-20T08:59:11.722Z,47.67
2022-12-20T09:01:41.267Z,49.22
2022-12-20T09:04:12.210Z,49.22
2022-12-20T09:06:41.179Z,48.58
2022-12-20T09:09:10.196Z,48.35
2022-12-20T09:11:39.222Z,49.20
2022-12-20T09:14:08.743Z,50.40
2022-12-20T09:16:39.167Z,49.67
2022-12-20T09:19:08.121Z,52.33
2022-12-20T09:21:37.135Z,47.95
2022-12-20T09:24:06.989Z,48.75
2022-12-20T09:26:36.338Z,49.65
2022-12-20T09:29:05.726Z,45.83
2022-12-20T09:31:34.859Z,41.72
2022-12-20T09:34:05.622Z,41.58
2022-12-20T09:36:34.654Z,42.38
2022-12-20T09:39:03.857Z,41.65
2022-12-20T09:41:38.378Z,42.53
2022-12-20T09:44:17.215Z,29.35
2022-12-20T09:46:55.727Z,28.92
2022-12-20T09:49:32.703Z,26.95
2022-12-20T09:52:42.122Z,27.60
2022-12-20T09:55:25.211Z,30.75
2022-12-20T09:58:19.439Z,27.13
2022-12-20T10:00:54.193Z,24.70
2022-12-20T10:03:27.359Z,27.05
2022-12-20T10:06:01.875Z,26.02
2022-12-20T10:08:46.942Z,27.77
2022-12-20T10:11:56.891Z,30.58
2022-12-20T10:14:48.314Z,28.55
2022-12-20T10:17:32.400Z,26.05
2022-12-20T10:20:23.783Z,29.05
2022-12-20T10:23:00.279Z,27.92
2022-12-20T10:25:33.390Z,27.70
2022-12-20T10:28:05.187Z,27.42
2022-12-20T10:30:35.605Z,28.27
2022-12-20T10:33:04.886Z,29.10
2022-12-20T10:35:40.776Z,27.88
2022-12-20T10:38:13.420Z,29.88
2022-12-20T10:41:19.425Z,31.25
2022-12-20T10:43:44.328Z,29.15
2022-12-20T10:46:14.788Z,30.15
2022-12-20T10:48:45.760Z,28.98
2022-12-20T10:51:18.108Z,29.27
2022-12-20T10:54:02.068Z,30.67
2022-12-20T10:56:33.177Z,30.77
2022-12-20T10:59:05.339Z,30.83
2022-12-20T11:01:37.459Z,29.67
2022-12-20T11:04:22.237Z,31.08
2022-12-20T11:06:53.040Z,29.73
2022-12-20T11:09:29.253Z,31.00
2022-12-20T11:12:07.490Z,31.07
2022-12-20T11:14:39.860Z,30.17
2022-12-20T11:17:30.248Z,32.20
2022-12-20T11:20:23.572Z,31.02
2022-12-20T11:23:04.260Z,30.08
2022-12-20T11:25:49.090Z,29.40
2022-12-20T11:28:43.392Z,32.20
2022-12-20T11:31:21.907Z,29.52
2022-12-20T11:34:11.204Z,31.08
2022-12-20T11:37:06.876Z,30.27
2022-12-20T11:39:45.741Z,28.98
2022-12-20T11:42:25.631Z,30.75
2022-12-20T11:45:09.720Z,28.40
2022-12-20T11:48:06.265Z,27.38
2022-12-20T11:50:53.838Z,28.35
2022-12-20T11:53:32.375Z,27.98
2022-12-20T11:56:06.401Z,29.10
2022-12-20T11:58:50.181Z,29.63
2022-12-20T12:01:24.730Z,29.05
2022-12-20T12:04:06.235Z,30.50
2022-12-20T12:06:39.974Z,27.58
2022-12-20T12:09:22.274Z,30.50
2022-12-20T12:12:07.219Z,30.13
2022-12-20T12:14:50.072Z,29.55
2022-12-20T12:17:30.374Z,28.70
2022-12-20T12:20:21.229Z,31.27
2022-12-20T12:22:56.735Z,29.95
2022-12-20T12:25:28.152Z,29.05
2022-12-20T12:27:57.192Z,30.52
2022-12-20T12:30:31.232Z,29.35
2022-12-20T12:33:07.833Z,31.98
2022-12-20T12:35:55.778Z,32.83
2022-12-20T12:39:04.377Z,30.88
2022-12-20T12:42:19.854Z,30.42
2022-12-20T12:44:54.206Z,30.88
2022-12-20T12:47:36.151Z,30.58
2022-12-20T12:50:10.857Z,31.40
2022-12-20T12:52:47.347Z,30.27
2022-12-20T12:55:41.150Z,21.00
2022-12-20T12:58:48.662Z,32.15
2022-12-20T13:01:51.036Z,29.00
2022-12-20T13:04:53.481Z,29.00
2022-12-20T13:07:43.573Z,29.52
2022-12-20T13:11:00.486Z,30.55
2022-12-20T13:13:29.874Z,29.08
2022-12-20T13:17:02.792Z,33.10
2022-12-20T13:19:36.400Z,29.85
2022-12-20T13:26:51.637Z,26.17
2022-12-20T13:29:27.254Z,27.98
2022-12-20T13:31:56.362Z,28.67
2022-12-20T13:34:55.177Z,28.55
2022-12-20T13:37:29.286Z,26.85
2022-12-20T13:40:02.084Z,26.15
2022-12-20T13:42:42.098Z,27.08
2022-12-20T13:45:15.798Z,28.25
2022-12-20T13:47:52.468Z,27.58
2022-12-20T13:50:35.674Z,26.75
2022-12-20T13:53:06.378Z,27.30
2022-12-20T13:55:49.670Z,25.92
2022-12-20T13:58:21.584Z,27.88
2022-12-20T14:00:52.042Z,29.92
2022-12-20T14:03:26.364Z,28.65
2022-12-20T14:06:02.468Z,30.55
2022-12-20T14:08:35.904Z,28.38
2022-12-20T14:11:13.481Z,30.17
2022-12-20T14:13:43.453Z,30.27
2022-12-20T14:16:18.910Z,29.65
2022-12-20T14:18:53.019Z,29.58
2022-12-20T14:21:24.512Z,29.30
2022-12-20T14:23:58.413Z,31.83
2022-12-20T14:26:32.640Z,29.75
2022-12-20T14:29:03.892Z,30.73
2022-12-20T14:31:41.240Z,29.73
2022-12-20T14:34:18.103Z,30.52
2022-12-20T14:37:33.989Z,28.10
2022-12-20T14:40:16.031Z,29.42
2022-12-20T14:42:49.105Z,30.05
2022-12-20T14:45:24.103Z,28.50
2022-12-20T14:48:00.434Z,26.45
2022-12-20T14:50:34.160Z,28.08
2022-12-20T14:53:18.638Z,29.90
2022-12-20T14:55:48.363Z,28.25
2022-12-20T14:58:28.795Z,29.02
2022-12-20T15:01:05.144Z,29.08
2022-12-20T15:03:34.509Z,27.08
2022-12-20T15:06:03.717Z,28.15
2022-12-20T15:08:35.121Z,28.70
2022-12-20T15:11:18.079Z,29.55
2022-12-20T15:27:42.795Z,27.80
2022-12-20T15:30:15.218Z,28.02
2022-12-20T15:33:17.562Z,30.15
2022-12-20T15:35:47.721Z,29.02
2022-12-20T15:41:43.834Z,28.10
2022-12-20T15:44:21.772Z,29.30
2022-12-20T15:46:54.732Z,28.63
2022-12-20T15:49:27.461Z,29.60
2022-12-20T15:52:11.863Z,28.13
2022-12-20T15:54:41.357Z,29.58
2022-12-20T15:57:16.427Z,29.50
2022-12-20T16:00:03.928Z,29.08
2022-12-20T16:02:51.496Z,30.73
2022-12-20T16:05:25.070Z,27.50
2022-12-20T16:07:54.370Z,28.63
2022-12-20T16:10:23.989Z,29.33
2022-12-20T16:12:53.271Z,28.20
2022-12-20T16:15:25.880Z,28.67
2022-12-20T16:17:55.028Z,29.17
2022-12-20T16:20:33.410Z,26.15
2022-12-20T16:24:18.203Z,25.75
2022-12-20T16:26:47.579Z,25.58
2022-12-20T16:29:43.221Z,26.33
2022-12-20T16:33:08.632Z,26.65
2022-12-20T16:35:38.333Z,26.00
2022-12-20T16:38:58.522Z,26.85
2022-12-20T16:41:40.559Z,28.17
2022-12-20T16:44:15.470Z,28.55
2022-12-20T16:46:47.666Z,27.48
2022-12-20T16:49:20.810Z,29.60
2022-12-20T16:51:50.939Z,28.50
2022-12-20T16:54:22.520Z,29.30
2022-12-20T16:56:56.141Z,27.42
2022-12-20T17:00:25.401Z,29.00
2022-12-20T17:03:43.947Z,30.00
2022-12-20T17:06:16.576Z,27.58
2022-12-20T17:08:53.211Z,28.15
2022-12-20T17:11:33.141Z,28.52
2022-12-20T17:14:12.565Z,29.20
2022-12-20T17:16:49.075Z,28.90
2022-12-20T17:19:43.447Z,31.63
2022-12-20T17:25:06.846Z,27.73
2022-12-20T17:27:35.897Z,28.33
2022-12-20T17:30:05.909Z,28.75
2022-12-20T17:32:39.269Z,29.33
2022-12-20T17:35:22.306Z,29.33
2022-12-20T17:38:15.030Z,29.45
2022-12-20T17:40:45.364Z,29.17
2022-12-20T17:43:20.842Z,27.73
2022-12-20T17:46:15.903Z,27.38
2022-12-20T17:48:46.098Z,28.63
2022-12-20T17:51:22.687Z,26.77
2022-12-20T17:53:56.729Z,31.60
2022-12-20T17:56:27.828Z,30.30
2022-12-20T17:58:58.046Z,29.80
2022-12-20T18:01:31.268Z,30.00
2022-12-20T18:04:04.563Z,28.13
2022-12-20T18:06:37.779Z,29.55
2022-12-20T18:09:15.238Z,29.80
2022-12-20T18:11:44.666Z,28.55
2022-12-20T18:14:14.904Z,29.58
2022-12-20T18:16:44.590Z,30.75
2022-12-20T18:19:18.458Z,28.98
2022-12-20T18:21:53.426Z,30.25
2022-12-20T18:24:25.537Z,21.23
2022-12-20T18:27:46.213Z,33.35
2022-12-20T18:30:15.933Z,31.60
2022-12-20T18:32:58.298Z,33.75
2022-12-20T18:35:48.447Z,31.98
2022-12-20T18:38:51.823Z,31.83
2022-12-20T18:41:25.584Z,32.35
2022-12-20T18:44:00.513Z,31.60
2022-12-20T18:46:55.179Z,30.85
2022-12-20T18:49:24.476Z,28.02
2022-12-20T18:52:46.914Z,29.40
2022-12-20T18:55:16.518Z,30.52
2022-12-20T18:58:21.022Z,28.75
2022-12-20T19:00:54.154Z,30.15
2022-12-20T19:03:24.795Z,32.55
2022-12-20T19:05:55.207Z,28.20
2022-12-20T19:08:25.120Z,27.45
2022-12-20T19:10:54.967Z,26.95
2022-12-20T19:13:30.778Z,27.02
2022-12-20T19:16:05.474Z,25.48
2022-12-20T19:18:35.609Z,25.45
2022-12-20T19:21:09.867Z,22.50
2022-12-20T19:23:40.743Z,22.45
2022-12-20T19:26:13.307Z,23.00
2022-12-20T19:28:45.316Z,21.52
2022-12-20T19:46:31.546Z,21.88
2022-12-20T19:50:15.010Z,20.45
2022-12-20T19:52:46.929Z,21.27
2022-12-20T19:55:55.305Z,21.63
2022-12-20T19:58:25.920Z,20.70
2022-12-20T20:01:06.350Z,21.17
2022-12-20T20:03:36.570Z,24.65
2022-12-20T20:06:09.873Z,22.73
2022-12-20T20:08:43.278Z,22.67
2022-12-20T20:11:13.857Z,21.17
2022-12-20T20:13:44.098Z,22.00
2022-12-20T20:16:21.813Z,22.15
2022-12-20T20:18:51.756Z,20.50
2022-12-20T20:21:24.053Z,20.60
2022-12-20T20:23:56.519Z,20.98
2022-12-20T20:26:29.478Z,20.70
2022-12-20T20:29:01.615Z,20.00
2022-12-20T20:31:31.773Z,20.13
2022-12-20T20:34:01.542Z,21.27
2022-12-20T20:36:31.160Z,20.50
2022-12-20T20:39:02.452Z,20.50
2022-12-20T20:41:32.975Z,20.48
2022-12-20T20:44:02.223Z,20.63
2022-12-20T20:46:31.704Z,20.83
2022-12-20T20:49:00.919Z,21.05
2022-12-20T20:51:30.037Z,21.40
2022-12-20T20:53:59.203Z,19.88
2022-12-20T20:56:29.857Z,19.50
2022-12-20T20:59:05.857Z,22.48
2022-12-20T21:01:39.391Z,23.60
2022-12-20T21:04:08.643Z,22.38
2022-12-20T21:06:41.752Z,21.98
2022-12-20T21:09:12.571Z,22.27
2022-12-20T21:11:43.132Z,24.30
2022-12-20T21:14:12.280Z,21.10
2022-12-20T21:16:41.978Z,22.13
2022-12-20T21:19:11.611Z,22.42
2022-12-20T21:21:40.689Z,21.73
2022-12-20T21:24:10.005Z,21.90
2022-12-20T21:26:39.101Z,21.73
2022-12-20T21:29:09.821Z,22.63
2022-12-20T21:31:39.043Z,22.35
2022-12-20T21:34:08.198Z,22.75
2022-12-20T21:36:37.224Z,22.27
2022-12-20T21:39:06.689Z,24.08
2022-12-20T21:41:36.799Z,23.92
2022-12-20T21:44:05.886Z,23.10
2022-12-20T21:46:36.513Z,23.55
2022-12-20T21:49:05.577Z,24.33
2022-12-20T21:51:35.383Z,22.48
2022-12-20T21:54:05.527Z,22.73
2022-12-20T21:56:35.732Z,21.27
2022-12-20T21:59:05.897Z,19.83
2022-12-20T22:01:36.574Z,20.83
2022-12-20T22:04:08.308Z,22.45
2022-12-20T22:06:37.354Z,23.25
2022-12-20T22:09:07.753Z,22.73
2022-12-20T22:11:37.780Z,22.80
2022-12-20T22:14:07.390Z,21.08
2022-12-20T22:16:37.944Z,23.35
2022-12-20T22:19:07.095Z,22.08
2022-12-20T22:21:36.827Z,23.23
2022-12-20T22:24:06.421Z,23.58
2022-12-20T22:26:35.899Z,22.23
2022-12-20T22:29:07.149Z,23.15
2022-12-20T22:31:38.441Z,21.55
2022-12-20T22:34:07.595Z,22.50
2022-12-20T22:36:37.058Z,23.27
2022-12-20T22:39:06.409Z,22.02
2022-12-20T22:41:35.571Z,20.48
2022-12-20T22:44:05.348Z,21.17
2022-12-20T22:46:35.017Z,21.25
2022-12-20T22:49:05.570Z,21.58
2022-12-20T22:51:34.650Z,22.33
2022-12-20T22:54:03.680Z,23.00
2022-12-20T22:56:32.709Z,21.15
2022-12-20T22:59:02.222Z,23.65
2022-12-20T23:01:31.349Z,22.38
2022-12-20T23:04:00.579Z,21.55
2022-12-20T23:06:31.110Z,21.67
2022-12-20T23:09:00.124Z,22.55
2022-12-20T23:11:48.131Z,21.10
2022-12-20T23:14:37.139Z,21.95
2022-12-20T23:17:07.996Z,21.92
2022-12-20T23:19:51.312Z,22.75
2022-12-20T23:22:38.219Z,21.38
2022-12-20T23:25:10.755Z,22.00
2022-12-20T23:27:40.623Z,22.35
2022-12-20T23:30:13.118Z,19.35
2022-12-20T23:32:44.411Z,20.95
2022-12-20T23:35:15.728Z,20.63
2022-12-20T23:37:47.090Z,21.33
2022-12-20T23:40:17.939Z,20.23
2022-12-20T23:42:47.322Z,20.08
2022-12-20T23:45:16.741Z,21.65
2022-12-20T23:47:46.073Z,20.45
2022-12-20T23:50:15.068Z,22.45
2022-12-20T23:52:45.487Z,20.60
2022-12-20T23:55:14.522Z,21.67
2022-12-20T23:57:43.540Z,21.17
